Etusivu
METAR-TAF:

METAR-TAF

Lentoasemat :

Brysselin lentoasema

Bryssel, Belgia

Leveyspiiri: 50-54N, Pituuspiiri: 004-32E, korkeus merenpinnasta: 55 m

Tämänhetkinen sää

Tämä raportti tehtiin 23 minuuttia sitten, kello 20.50 UTC
Tuuli 4 kn lännestä/lounaasta
Lämpötila 17°C
Kosteus 77%
Ilmanpaine 1016 hPa
Näkyvyys 10 km tai enemmän
ei pilviä alle 1500 m:ssä eikä cumulonimbus-pilviä

METAR: EBBR 182050Z 25004KT CAVOK 17/13 Q1016 NOSIG

Aika: 23:13 (21:13 UTC)

Sääennuste

Tämä raportti tehtiin 4 tuntia ja 3 minuuttia sitten, kello 17.10 UTC
Ennuste voimassa 18. päivästä klo 18 UTC - 19. päivään klo 24 UTC
Tuuli 8 kn lännestä
Näkyvyys 10 km tai enemmän
ei pilviä alle 1500 m:ssä eikä cumulonimbus-pilviä
Ajoittain
19. päivästä klo 12 UTC - 19. päivään klo 17 UTC
Tuuli 15 kn lounaasta puuskistuen 25 kn:hen

TAF: EBBR 181710Z 1818/1924 26008KT CAVOK TEMPO 1912/1917 23015G25KT

Säähavainnot ja -ennusteet yli 4000 lentoasemalta (METAR- ja TAF-raportit).

Käytössä olevat sääasemat on merkitty karttaan keltaisilla ja punaisilla pisteillä.

Aseta hiiri pisteen päälle nähdäksesi sääaseman nimen.

Klikkaa sitten nähdäksesi säähavainnot ja -ennusteet.

Kartan vaihtaminen: klikkaa mustalla rastilla varustettuja vihreitä pisteitä, niin voit zoomata sisään; viivalla varustettua vihreää pistettä, niin voit zoomata ulos tai vihreitä nuolia, niin pääset viereisille kartoille.


METAR-TAF: